Time;durP1;ratioP1;P1;durP2;ratioP2;P2;SDS_P1;SDS_P2;PMS_P1;PMS_P2;Temp;Humidity;BMP_temperature;BMP_pressure;BME280_temperature;BME280_humidity;BME280_pressure;Samples;Min_cycle;Max_cycle;Signal;HPM_P1;HPM_P2
2023/03/19 00:01:06;;;;;;;10.67;7.53;;;;;;;9.96;65.82;98512.09;5091057;28;42444;-81
2023/03/19 00:03:34;;;;;;;9.27;7.57;;;;;;;9.83;68.09;98494.47;5074567;28;40057;-83
2023/03/19 00:06:04;;;;;;;12.03;8.17;;;;;;;9.90;68.18;98511.63;5090848;28;40793;-81
2023/03/19 00:08:32;;;;;;;10.47;7.63;;;;;;;9.76;66.88;98499.31;5073859;28;42819;-83
2023/03/19 00:11:05;;;;;;;10.37;6.80;;;;;;;9.81;66.44;98518.38;5074009;28;42239;-82
2023/03/19 00:13:33;;;;;;;8.07;7.20;;;;;;;9.75;65.93;98517.94;5089593;28;40187;-83
2023/03/19 00:16:01;;;;;;;8.30;6.70;;;;;;;9.65;65.63;98513.22;5078469;28;40790;-81
2023/03/19 00:18:30;;;;;;;9.07;7.60;;;;;;;9.61;66.20;98510.88;5074690;28;41281;-81
2023/03/19 00:20:58;;;;;;;8.90;6.40;;;;;;;9.62;65.50;98526.66;5090824;28;42223;-82
2023/03/19 00:23:26;;;;;;;8.27;6.63;;;;;;;9.57;65.81;98528.72;5077330;28;39032;-83
2023/03/19 00:25:54;;;;;;;12.10;8.20;;;;;;;9.52;65.70;98530.81;5077262;28;40407;-81
2023/03/19 00:28:22;;;;;;;8.43;6.77;;;;;;;9.49;65.94;98532.81;5077455;28;43527;-81
2023/03/19 00:30:50;;;;;;;8.87;6.27;;;;;;;9.31;65.51;98505.75;5077112;28;42098;-81
2023/03/19 00:33:17;;;;;;;8.83;6.53;;;;;;;9.40;65.43;98533.38;5077906;28;39694;-81
2023/03/19 00:35:48;;;;;;;7.87;6.70;;;;;;;9.32;65.18;98531.22;5077119;28;40439;-82
2023/03/19 00:38:16;;;;;;;10.03;6.53;;;;;;;9.27;65.35;98533.31;5094111;28;42429;-81
2023/03/19 00:40:44;;;;;;;9.33;5.73;;;;;;;9.25;65.50;98545.78;5077221;28;41321;-82
2023/03/19 00:43:11;;;;;;;11.33;6.90;;;;;;;9.12;65.46;98523.69;5077616;28;40334;-81
2023/03/19 00:45:40;;;;;;;7.47;5.67;;;;;;;9.18;65.67;98536.50;5093981;28;42431;-82
2023/03/19 00:48:09;;;;;;;8.00;6.53;;;;;;;9.03;65.94;98517.16;5094407;28;43730;-81
2023/03/19 00:50:36;;;;;;;7.50;6.43;;;;;;;9.11;65.55;98546.63;5076996;28;42146;-81
2023/03/19 00:53:06;;;;;;;10.23;6.10;;;;;;;9.08;65.75;98538.03;5077087;28;39168;-81
2023/03/19 00:55:33;;;;;;;7.40;5.60;;;;;;;8.91;66.06;98515.28;5077070;28;42049;-82
2023/03/19 00:58:01;;;;;;;10.53;8.00;;;;;;;9.04;67.25;98528.59;5077261;28;43135;-81
2023/03/19 01:00:29;;;;;;;11.40;7.20;;;;;;;9.02;66.74;98535.78;5077054;28;40987;-81
2023/03/19 01:02:57;;;;;;;8.33;6.23;;;;;;;8.77;66.58;98502.94;5094020;28;40045;-82
2023/03/19 01:05:26;;;;;;;7.23;5.50;;;;;;;8.97;66.70;98541.31;5093850;28;42749;-82
2023/03/19 01:07:54;;;;;;;9.20;6.97;;;;;;;8.95;66.60;98549.34;5093843;28;43366;-82
2023/03/19 01:10:24;;;;;;;12.53;6.73;;;;;;;8.95;66.54;98546.69;5076931;28;41138;-81
2023/03/19 01:12:52;;;;;;;8.93;6.73;;;;;;;8.96;66.28;98544.91;5090966;28;40184;-82
2023/03/19 01:15:20;;;;;;;8.57;6.40;;;;;;;8.97;66.42;98546.59;5076989;28;41759;-82
2023/03/19 01:17:48;;;;;;;9.43;6.30;;;;;;;8.94;67.27;98542.34;5076973;28;43724;-81
2023/03/19 01:20:17;;;;;;;9.50;6.93;;;;;;;9.02;66.85;98551.63;5076663;28;41569;-82
2023/03/19 01:22:46;;;;;;;9.23;6.73;;;;;;;9.02;66.69;98549.84;5076145;28;38771;-81
2023/03/19 01:25:14;;;;;;;10.67;6.70;;;;;;;9.02;66.43;98555.94;5076708;28;41039;-82
2023/03/19 01:27:52;;;;;;;9.43;6.20;;;;;;;9.04;66.39;98557.63;5090676;28;43315;-82
2023/03/19 01:30:21;;;;;;;7.00;5.60;;;;;;;9.02;66.48;98553.28;5093691;28;42218;-83
2023/03/19 01:33:15;;;;;;;11.57;7.53;;;;;;;8.89;69.98;98520.69;5068870;28;39824;-82
2023/03/19 01:36:02;;;;;;;11.07;8.03;;;;;;;8.94;69.08;98549.44;5076323;28;40750;-82
2023/03/19 01:38:35;;;;;;;11.70;7.50;;;;;;;8.93;68.14;98561.78;5076672;28;43262;-81
2023/03/19 01:41:06;;;;;;;10.83;7.17;;;;;;;8.77;67.71;98533.78;5076216;28;41382;-81
2023/03/19 01:43:36;;;;;;;8.43;6.60;;;;;;;8.76;67.64;98535.56;5093636;28;40914;-82
2023/03/19 01:46:27;;;;;;;8.47;6.13;;;;;;;8.77;68.70;98529.34;5076589;28;42112;-82
2023/03/19 01:49:13;;;;;;;11.23;7.57;;;;;;;8.78;70.54;98533.66;5093428;28;43161;-81
2023/03/19 01:51:47;;;;;;;10.87;7.50;;;;;;;8.70;69.56;98528.00;5076318;28;41544;-80
2023/03/19 01:54:35;;;;;;;12.50;7.23;;;;;;;8.70;69.14;98538.56;5076435;28;39160;-82
2023/03/19 01:57:23;;;;;;;8.77;6.63;;;;;;;8.79;68.54;98553.84;5093563;28;40731;-82
2023/03/19 02:00:24;;;;;;;9.23;6.47;;;;;;;8.78;68.03;98570.63;5076029;28;41709;-81
2023/03/19 02:03:00;;;;;;;8.93;6.20;;;;;;;8.60;67.86;98550.63;5090064;28;42077;-82
2023/03/19 02:05:51;;;;;;;7.53;5.87;;;;;;;8.69;67.83;98567.69;5085352;28;39971;-81
2023/03/19 02:08:23;;;;;;;8.80;5.70;;;;;;;8.63;67.54;98572.41;5076408;28;40713;-81
2023/03/19 02:10:54;;;;;;;7.43;6.23;;;;;;;8.59;67.72;98567.38;5092128;28;43744;-82
2023/03/19 02:13:23;;;;;;;7.93;5.90;;;;;;;8.55;68.70;98566.72;5076184;28;42361;-83
2023/03/19 02:15:53;;;;;;;8.93;6.37;;;;;;;8.48;69.41;98548.69;5075833;28;38988;-81
2023/03/19 02:18:22;;;;;;;7.23;6.37;;;;;;;8.53;69.03;98563.31;5092976;28;41704;-83
2023/03/19 02:20:55;;;;;;;8.20;6.07;;;;;;;8.52;69.06;98561.63;5075667;28;43265;-81
2023/03/19 02:23:33;;;;;;;6.87;6.17;;;;;;;8.56;68.74;98562.28;5092451;28;42379;-83
2023/03/19 02:26:08;;;;;;;6.00;5.20;;;;;;;8.58;69.11;98561.25;5092206;28;40874;-82
2023/03/19 02:28:40;;;;;;;7.37;5.63;;;;;;;8.62;68.35;98560.16;5090062;28;42327;-82
2023/03/19 02:31:08;;;;;;;8.03;5.40;;;;;;;8.68;68.28;98572.13;5075849;28;41729;-83
2023/03/19 02:33:36;;;;;;;7.13;5.17;;;;;;;8.63;68.35;98550.44;5075696;28;42100;-82
2023/03/19 02:36:10;;;;;;;6.77;5.13;;;;;;;8.67;68.06;98544.00;5092244;28;39423;-82
2023/03/19 02:38:41;;;;;;;6.30;4.93;;;;;;;8.73;68.13;98554.22;5089561;28;43033;-81
2023/03/19 02:41:11;;;;;;;8.93;6.03;;;;;;;8.90;67.91;98561.16;5092022;28;42950;-82
2023/03/19 02:43:41;;;;;;;7.43;5.70;;;;;;;8.98;67.78;98570.28;5089108;28;42194;-82
2023/03/19 02:46:11;;;;;;;6.63;5.03;;;;;;;8.95;67.59;98562.53;5074699;28;39580;-82
2023/03/19 02:48:41;;;;;;;7.47;5.10;;;;;;;9.09;67.62;98576.69;5075839;28;40304;-81
2023/03/19 02:51:09;;;;;;;6.60;5.10;;;;;;;8.97;67.39;98558.03;5093313;28;42771;-83
2023/03/19 02:53:37;;;;;;;7.60;5.23;;;;;;;9.02;67.32;98559.53;5075535;28;41486;-83
2023/03/19 02:56:05;;;;;;;6.60;5.70;;;;;;;9.12;67.33;98568.59;5092498;28;40412;-81
2023/03/19 02:58:35;;;;;;;7.13;5.63;;;;;;;9.07;67.31;98562.75;5092435;28;41620;-81
2023/03/19 03:01:03;;;;;;;7.47;5.40;;;;;;;9.17;67.18;98577.94;5075280;28;42830;-82
2023/03/19 03:03:33;;;;;;;7.40;5.10;;;;;;;9.24;67.31;98583.69;5075408;28;41125;-82
2023/03/19 03:06:01;;;;;;;7.67;5.03;;;;;;;9.20;67.33;98564.53;5097887;28;40059;-80
2023/03/19 03:08:29;;;;;;;7.27;5.70;;;;;;;9.31;68.15;98577.09;5079602;28;40585;-82
2023/03/19 03:10:56;;;;;;;10.67;7.00;;;;;;;9.23;68.36;98568.78;5075427;28;41742;-82
2023/03/19 03:13:26;;;;;;;8.70;6.23;;;;;;;9.37;68.52;98603.16;5074830;28;41104;-82
2023/03/19 03:15:56;;;;;;;8.63;6.17;;;;;;;9.38;68.67;98582.84;5092271;28;40184;-81
2023/03/19 03:18:24;;;;;;;7.90;6.40;;;;;;;9.31;70.89;98571.78;5074752;28;40818;-82
2023/03/19 03:20:52;;;;;;;9.47;6.40;;;;;;;9.35;73.17;98565.38;5075327;28;41757;-84
2023/03/19 03:23:20;;;;;;;9.77;6.87;;;;;;;9.32;72.12;98568.22;5091525;28;42262;-82
2023/03/19 03:25:49;;;;;;;10.20;6.80;;;;;;;9.31;72.61;98572.66;5075249;28;38959;-82
2023/03/19 03:28:17;;;;;;;8.47;6.47;;;;;;;9.33;72.11;98568.13;5075048;28;41493;-81
2023/03/19 03:30:45;;;;;;;6.87;6.10;;;;;;;9.38;71.77;98567.84;5091920;28;41713;-82
2023/03/19 03:33:16;;;;;;;6.67;5.37;;;;;;;9.42;70.86;98574.63;5092612;28;42184;-83
2023/03/19 03:35:45;;;;;;;8.17;6.03;;;;;;;9.43;70.79;98576.31;5075477;28;38731;-82
2023/03/19 03:38:13;;;;;;;6.73;5.43;;;;;;;9.45;71.09;98578.88;5091463;28;41776;-83
2023/03/19 03:40:41;;;;;;;6.07;5.47;;;;;;;9.46;71.12;98589.34;5074954;28;42718;-83
2023/03/19 03:43:09;;;;;;;6.93;4.97;;;;;;;9.39;70.52;98585.41;5091362;28;42899;-82
2023/03/19 03:45:37;;;;;;;8.23;5.43;;;;;;;9.37;70.71;98589.94;5091891;28;39834;-83
2023/03/19 03:48:06;;;;;;;7.20;6.37;;;;;;;9.36;70.83;98588.22;5074086;28;40857;-81
2023/03/19 03:50:36;;;;;;;8.23;5.87;;;;;;;9.47;70.72;98608.72;5091844;28;43042;-82
2023/03/19 03:53:08;;;;;;;6.67;5.03;;;;;;;9.46;70.33;98607.84;5074414;28;41093;-81
2023/03/19 03:55:36;;;;;;;7.93;6.17;;;;;;;9.48;70.54;98618.34;5075654;28;38640;-82
2023/03/19 03:58:05;;;;;;;9.87;6.50;;;;;;;9.40;71.28;98602.09;5077987;28;40533;-82
2023/03/19 04:00:33;;;;;;;9.13;7.00;;;;;;;9.49;72.88;98602.38;5078359;28;42228;-83
2023/03/19 04:03:01;;;;;;;8.90;5.90;;;;;;;9.49;71.99;98607.69;5094695;28;41398;-81
2023/03/19 04:05:29;;;;;;;7.73;5.83;;;;;;;9.50;71.68;98604.09;5078398;28;38815;-81
2023/03/19 04:07:59;;;;;;;8.00;6.27;;;;;;;9.39;71.67;98593.34;5094826;28;42792;-82
2023/03/19 04:10:27;;;;;;;7.03;5.83;;;;;;;9.50;71.58;98614.66;5095153;28;42550;-82
2023/03/19 04:12:54;;;;;;;8.23;6.43;;;;;;;9.51;71.30;98621.66;5077417;28;40746;-82
2023/03/19 04:15:23;;;;;;;9.77;7.30;;;;;;;9.51;71.30;98620.81;5078056;28;38443;-81
2023/03/19 04:17:53;;;;;;;9.23;6.93;;;;;;;9.53;71.77;98622.38;5077477;28;40780;-81
2023/03/19 04:20:22;;;;;;;8.07;5.97;;;;;;;9.51;73.25;98611.06;5078340;28;42548;-82
2023/03/19 04:22:50;;;;;;;8.67;6.23;;;;;;;9.33;72.93;98589.25;5093966;28;41394;-83
2023/03/19 04:25:20;;;;;;;8.13;5.90;;;;;;;9.35;72.40;98605.03;5078140;28;39106;-83
2023/03/19 04:27:47;;;;;;;6.90;6.20;;;;;;;9.33;72.01;98601.63;5094520;28;42519;-81
2023/03/19 04:30:16;;;;;;;9.00;5.97;;;;;;;9.44;73.32;98606.25;5094895;28;42945;-83
2023/03/19 04:32:45;;;;;;;11.43;6.90;;;;;;;9.42;73.63;98608.97;5077507;28;41066;-83
2023/03/19 04:35:13;;;;;;;7.70;6.00;;;;;;;9.40;73.16;98602.94;5095064;28;40995;-83
2023/03/19 04:37:42;;;;;;;9.40;6.20;;;;;;;9.42;74.27;98601.06;5077326;28;40186;-81
2023/03/19 04:40:12;;;;;;;7.83;5.70;;;;;;;9.49;73.28;98618.25;5077655;28;41588;-82
2023/03/19 04:42:44;;;;;;;6.80;5.47;;;;;;;9.15;72.55;98561.31;5077614;28;41901;-81
2023/03/19 04:45:27;;;;;;;7.90;6.60;;;;;;;9.45;74.72;98590.28;5077743;28;38947;-82
2023/03/19 04:47:55;;;;;;;7.87;5.77;;;;;;;9.50;73.51;98619.09;5093779;28;42658;-81
2023/03/19 04:50:23;;;;;;;7.80;6.10;;;;;;;9.50;72.90;98614.66;5077209;28;42862;-82
2023/03/19 04:52:50;;;;;;;7.07;5.57;;;;;;;9.68;72.26;98631.16;5076343;28;41174;-82
2023/03/19 04:55:19;;;;;;;6.57;4.93;;;;;;;9.73;72.03;98643.16;5077144;28;38555;-81
2023/03/19 04:57:58;;;;;;;5.37;4.87;;;;;;;9.78;71.79;98647.28;5077881;28;40873;-82
2023/03/19 05:00:30;;;;;;;8.33;6.30;;;;;;;9.78;71.84;98644.66;5092128;28;42656;-82
2023/03/19 05:02:58;;;;;;;6.07;4.77;;;;;;;9.77;71.60;98648.25;5076956;28;42422;-83
2023/03/19 05:05:28;;;;;;;6.07;5.33;;;;;;;9.82;71.20;98664.69;5094449;28;40014;-83
2023/03/19 05:07:57;;;;;;;7.07;5.10;;;;;;;9.84;71.22;98670.72;5076064;28;41980;-82
2023/03/19 05:10:26;;;;;;;6.10;4.80;;;;;;;9.85;70.84;98668.00;5094315;28;43409;-84
2023/03/19 05:12:54;;;;;;;7.93;5.97;;;;;;;9.87;71.02;98675.84;5093838;28;43097;-81
2023/03/19 05:15:23;;;;;;;6.33;5.00;;;;;;;9.87;70.64;98670.53;5077389;28;40089;-84
2023/03/19 05:17:59;;;;;;;5.43;4.77;;;;;;;9.85;70.48;98673.28;5077273;28;41758;-82
2023/03/19 05:20:34;;;;;;;8.90;5.80;;;;;;;9.81;70.59;98676.19;5077596;28;41735;-81
2023/03/19 05:23:06;;;;;;;6.63;4.93;;;;;;;9.88;71.05;98682.81;5076360;28;41170;-81
2023/03/19 05:25:43;;;;;;;6.43;4.97;;;;;;;9.86;70.98;98687.34;5091136;28;40966;-83
2023/03/19 05:28:13;;;;;;;6.63;5.47;;;;;;;9.83;70.62;98695.47;5077056;28;40531;-81
2023/03/19 05:30:45;;;;;;;5.77;5.20;;;;;;;9.79;70.80;98691.31;5094041;28;42131;-82
2023/03/19 05:33:32;;;;;;;7.03;5.30;;;;;;;9.77;71.14;98704.63;5093799;28;41620;-82
2023/03/19 05:36:00;;;;;;;6.23;5.37;;;;;;;9.72;71.37;98694.34;5076821;28;38856;-83
2023/03/19 05:38:41;;;;;;;9.27;6.23;;;;;;;9.75;71.65;98708.31;5093558;28;40738;-83
2023/03/19 05:41:14;;;;;;;6.87;5.53;;;;;;;9.77;72.33;98706.44;5076743;28;41986;-82
2023/03/19 05:43:55;;;;;;;7.90;5.90;;;;;;;9.69;72.89;98693.69;5076583;28;41963;-84
2023/03/19 05:46:42;;;;;;;10.40;5.90;;;;;;;9.80;73.37;98698.28;5093399;28;39949;-81
2023/03/19 05:49:11;;;;;;;5.73;4.73;;;;;;;9.80;74.80;98696.50;5077025;28;40706;-82
2023/03/19 05:51:39;;;;;;;6.90;5.20;;;;;;;9.80;75.80;98691.22;5076728;28;43164;-85
2023/03/19 05:54:08;;;;;;;8.90;5.40;;;;;;;9.81;77.06;98684.13;5093501;28;41338;-81
2023/03/19 05:56:40;;;;;;;7.07;5.80;;;;;;;9.84;78.43;98691.88;5101518;28;41474;-81
2023/03/19 05:59:26;;;;;;;7.50;4.90;;;;;;;9.73;80.42;98677.53;5096993;28;40811;-85
2023/03/19 06:02:10;;;;;;;5.33;4.30;;;;;;;9.72;80.11;98689.06;5091695;28;43980;-87
2023/03/19 06:04:39;;;;;;;6.23;4.00;;;;;;;9.86;79.80;98700.56;5076988;28;41198;-85
2023/03/19 06:07:08;;;;;;;10.80;4.00;;;;;;;9.82;80.60;98688.47;5075946;28;39307;-83
2023/03/19 06:09:37;;;;;;;5.20;3.60;;;;;;;9.94;79.82;98704.44;5076009;28;40677;-82
2023/03/19 06:12:07;;;;;;;4.20;3.47;;;;;;;10.03;79.70;98703.00;5075780;28;41792;-81
2023/03/19 06:14:53;;;;;;;7.50;3.90;;;;;;;10.06;83.05;98692.22;5092770;28;42302;-81
2023/03/19 06:17:55;;;;;;;4.20;3.10;;;;;;;10.08;82.47;98698.28;5069539;28;39962;-81
2023/03/19 06:20:23;;;;;;;4.23;2.97;;;;;;;10.09;81.19;98692.06;5075806;28;40886;-82
2023/03/19 06:22:52;;;;;;;5.27;3.40;;;;;;;10.31;80.74;98728.63;5074937;28;42637;-82
2023/03/19 06:25:23;;;;;;;6.00;3.93;;;;;;;10.33;81.39;98714.34;5092897;28;41116;-82
2023/03/19 06:27:51;;;;;;;7.00;4.00;;;;;;;10.38;81.42;98730.78;5093869;28;39950;-82
2023/03/19 06:30:25;;;;;;;6.37;5.50;;;;;;;10.41;82.45;98730.56;5076031;28;40702;-82
2023/03/19 06:32:56;;;;;;;6.03;3.70;;;;;;;10.35;82.49;98704.50;5092027;28;42820;-81
2023/03/19 06:35:24;;;;;;;3.97;3.37;;;;;;;10.53;81.79;98728.09;5075507;28;42229;-83
2023/03/19 06:37:53;;;;;;;4.73;2.97;;;;;;;10.65;81.62;98743.19;5092292;28;40734;-81
2023/03/19 06:40:21;;;;;;;3.87;3.07;;;;;;;10.76;80.83;98740.69;5092863;28;41863;-82
2023/03/19 06:42:49;;;;;;;4.60;2.47;;;;;;;10.76;82.38;98722.16;5075642;28;42018;-83
2023/03/19 06:45:19;;;;;;;3.40;2.40;;;;;;;10.75;82.00;98720.47;5092542;28;42306;-81
2023/03/19 06:47:47;;;;;;;4.30;2.63;;;;;;;10.93;81.54;98753.69;5092463;28;41069;-82
2023/03/19 06:50:18;;;;;;;3.63;2.47;;;;;;;10.96;80.84;98742.91;5075529;28;40849;-82
2023/03/19 06:52:45;;;;;;;5.37;2.53;;;;;;;11.11;80.38;98749.84;5093085;28;43397;-82
2023/03/19 06:55:13;;;;;;;5.97;2.23;;;;;;;11.18;80.95;98752.06;5075328;28;41306;-83
2023/03/19 06:57:41;;;;;;;3.83;2.63;;;;;;;11.16;80.55;98745.06;5075621;28;38824;-82
2023/03/19 07:00:10;;;;;;;4.37;2.37;;;;;;;11.18;80.26;98737.03;5075492;28;40938;-82
2023/03/19 07:02:38;;;;;;;4.37;2.23;;;;;;;11.40;80.13;98761.13;5091821;28;42147;-83
2023/03/19 07:05:07;;;;;;;2.83;2.30;;;;;;;11.38;80.59;98754.22;5092057;28;41300;-81
2023/03/19 07:07:36;;;;;;;4.17;2.77;;;;;;;11.50;79.97;98756.06;5075212;28;39103;-84
2023/03/19 07:10:05;;;;;;;2.40;2.20;;;;;;;11.61;80.75;98758.00;5092207;28;41824;-81
2023/03/19 07:12:33;;;;;;;4.20;2.60;;;;;;;11.41;80.36;98723.06;5075040;28;43171;-83
2023/03/19 07:15:01;;;;;;;4.23;2.17;;;;;;;11.74;80.30;98765.03;5075501;28;41403;-83
2023/03/19 07:17:29;;;;;;;3.50;2.40;;;;;;;11.83;80.29;98777.69;5091889;28;38671;-82
2023/03/19 07:19:57;;;;;;;5.70;2.20;;;;;;;11.96;80.24;98771.53;5075034;28;41838;-82
2023/03/19 07:22:25;;;;;;;5.77;2.60;;;;;;;11.97;79.34;98767.91;5074369;28;42077;-84
2023/03/19 07:24:54;;;;;;;6.73;4.23;;;;;;;12.13;79.54;98787.09;5074675;28;42323;-81
2023/03/19 07:27:22;;;;;;;4.57;3.33;;;;;;;12.09;79.04;98767.06;5074933;28;38991;-82
2023/03/19 07:29:50;;;;;;;5.53;4.57;;;;;;;12.14;79.81;98772.88;5074837;28;40965;-82
2023/03/19 07:32:18;;;;;;;6.00;5.40;;;;;;;12.11;80.37;98768.66;5074484;28;41729;-83
2023/03/19 07:34:46;;;;;;;6.03;4.93;;;;;;;12.20;80.03;98775.97;5074624;28;42481;-84
2023/03/19 07:37:13;;;;;;;5.73;4.90;;;;;;;12.26;79.96;98761.38;5074561;28;39806;-84
2023/03/19 07:39:41;;;;;;;6.43;4.27;;;;;;;12.34;80.53;98769.69;5074941;28;40757;-85
2023/03/19 07:42:11;;;;;;;5.33;4.00;;;;;;;12.53;80.18;98786.00;5074848;28;41731;-86
2023/03/19 07:44:40;;;;;;;5.73;3.37;;;;;;;12.54;79.86;98770.91;5088687;28;43332;-84
2023/03/19 07:47:08;;;;;;;4.50;3.77;;;;;;;12.67;79.53;98773.53;5091788;28;39937;-83
2023/03/19 07:49:36;;;;;;;3.80;3.00;;;;;;;12.62;79.33;98749.94;5074712;28;42010;-83
2023/03/19 07:52:05;;;;;;;6.07;3.57;;;;;;;12.84;79.12;98771.34;5074367;28;41818;-84
2023/03/19 07:54:33;;;;;;;4.53;3.47;;;;;;;13.01;79.42;98788.69;5074859;28;41586;-83
2023/03/19 07:57:01;;;;;;;5.83;3.73;;;;;;;12.97;79.15;98775.78;5074811;28;39879;-82
2023/03/19 07:59:30;;;;;;;5.10;3.70;;;;;;;13.05;79.18;98787.53;5074806;28;40704;-82
2023/03/19 08:01:59;;;;;;;6.57;4.63;;;;;;;13.10;78.93;98785.38;5074575;28;41988;-84
2023/03/19 08:04:27;;;;;;;4.47;3.90;;;;;;;13.03;79.02;98762.84;5091802;28;41984;-83
2023/03/19 08:06:55;;;;;;;6.03;4.43;;;;;;;13.17;78.97;98781.34;5075026;28;40227;-82
2023/03/19 08:09:23;;;;;;;7.00;4.83;;;;;;;13.21;78.54;98766.84;5074659;28;40394;-82
2023/03/19 08:11:51;;;;;;;4.40;4.00;;;;;;;13.41;78.54;98780.47;5074431;28;41375;-83
2023/03/19 08:14:21;;;;;;;5.77;4.77;;;;;;;13.70;78.29;98792.41;5074305;28;42339;-82
2023/03/19 08:16:50;;;;;;;6.70;5.70;;;;;;;13.86;78.11;98786.75;5074104;28;40302;-83
2023/03/19 08:19:18;;;;;;;6.20;5.60;;;;;;;14.15;77.33;98819.13;5074263;28;40762;-85
2023/03/19 08:21:46;;;;;;;7.73;6.37;;;;;;;14.19;77.46;98805.47;5073813;28;42095;-83
2023/03/19 08:24:15;;;;;;;5.97;4.37;;;;;;;14.19;76.61;98809.94;5088104;28;42398;-83
2023/03/19 08:26:43;;;;;;;4.27;3.67;;;;;;;14.07;75.88;98805.56;5074390;28;40130;-81
2023/03/19 08:29:11;;;;;;;3.73;3.03;;;;;;;13.97;75.50;98803.59;5074359;28;40738;-84
2023/03/19 08:31:39;;;;;;;3.97;3.10;;;;;;;13.90;75.37;98815.69;5074247;28;41848;-83
2023/03/19 08:34:09;;;;;;;4.00;2.90;;;;;;;13.89;75.06;98827.28;5074191;28;41414;-83
2023/03/19 08:36:37;;;;;;;4.47;2.63;;;;;;;13.69;75.31;98795.19;5074299;28;39076;-84
2023/03/19 08:39:05;;;;;;;4.67;2.90;;;;;;;13.84;75.22;98823.31;5074541;28;41297;-83
2023/03/19 08:41:33;;;;;;;4.13;2.60;;;;;;;13.79;75.22;98818.31;5074315;28;41910;-84
2023/03/19 08:44:01;;;;;;;4.03;2.53;;;;;;;13.58;75.14;98783.56;5077867;28;41430;-83
2023/03/19 08:46:29;;;;;;;3.77;3.10;;;;;;;13.80;75.23;98798.72;5079408;28;38537;-84
2023/03/19 08:48:57;;;;;;;4.37;2.90;;;;;;;13.93;74.96;98812.78;5077720;28;41064;-83
2023/03/19 08:51:30;;;;;;;6.80;3.37;;;;;;;14.19;74.03;98825.91;5079322;28;42110;-84
2023/03/19 08:53:58;;;;;;;5.20;3.17;;;;;;;14.36;73.56;98836.09;5077885;28;40933;-84
2023/03/19 08:56:26;;;;;;;5.70;3.50;;;;;;;14.32;73.04;98821.31;5077884;28;39951;-83
2023/03/19 08:58:56;;;;;;;3.50;3.20;;;;;;;14.47;72.75;98835.28;5077237;28;40580;-84
2023/03/19 09:01:24;;;;;;;2.63;2.43;;;;;;;14.49;72.03;98844.00;5077394;28;41814;-84
2023/03/19 09:03:52;;;;;;;3.07;2.37;;;;;;;14.41;72.46;98823.28;5077125;28;42313;-83
2023/03/19 09:06:20;;;;;;;3.00;2.50;;;;;;;14.56;72.35;98829.25;5094202;28;39900;-82
2023/03/19 09:08:52;;;;;;;4.73;2.73;;;;;;;14.86;72.13;98847.25;5077324;28;40601;-83
2023/03/19 09:11:22;;;;;;;3.20;2.07;;;;;;;15.03;71.18;98834.28;5077311;28;42367;-83
2023/03/19 09:13:50;;;;;;;4.03;2.67;;;;;;;15.33;70.89;98836.22;5059700;28;41779;-82
2023/03/19 09:16:18;;;;;;;3.63;2.43;;;;;;;15.66;69.87;98842.47;5077202;28;39594;-83
2023/03/19 09:18:46;;;;;;;3.40;2.77;;;;;;;16.02;68.18;98860.75;5077275;28;40791;-84
2023/03/19 09:21:14;;;;;;;3.10;2.80;;;;;;;16.29;67.97;98851.34;5076867;28;42731;-87
2023/03/19 09:23:42;;;;;;;3.13;2.23;;;;;;;16.71;67.09;98853.00;5076806;28;41453;-82
2023/03/19 09:26:11;;;;;;;3.87;2.43;;;;;;;17.40;66.01;98858.41;5077358;28;38802;-83
2023/03/19 09:28:39;;;;;;;3.93;2.80;;;;;;;18.27;63.67;98851.22;5076533;28;42052;-83
2023/03/19 09:31:10;;;;;;;3.73;2.43;;;;;;;19.15;61.37;98873.25;5076982;28;41729;-82
2023/03/19 09:33:38;;;;;;;2.87;2.30;;;;;;;19.61;58.88;98886.53;5090945;28;43203;-83
2023/03/19 09:36:06;;;;;;;4.37;3.00;;;;;;;19.92;56.46;98888.84;5093508;28;40116;-82
2023/03/19 09:38:34;;;;;;;2.80;2.57;;;;;;;20.09;54.92;98901.44;5093443;28;42467;-86
2023/03/19 09:41:10;;;;;;;3.10;2.30;;;;;;;19.95;54.45;98899.28;5076415;28;42875;-80
2023/03/19 09:44:01;;;;;;;3.23;2.43;;;;;;;19.73;54.10;98896.06;5090870;28;43241;-82
2023/03/19 09:46:45;;;;;;;3.47;2.23;;;;;;;19.63;53.57;98884.56;5076842;28;38982;-83
2023/03/19 09:49:25;;;;;;;3.50;2.27;;;;;;;19.44;53.62;98879.25;5076347;28;40824;-83
2023/03/19 09:51:57;;;;;;;2.00;1.73;;;;;;;19.35;54.00;98882.84;5076674;28;41738;-84
2023/03/19 09:54:29;;;;;;;1.93;1.77;;;;;;;19.48;54.46;98885.19;5075933;28;41073;-84
2023/03/19 09:56:58;;;;;;;2.47;2.13;;;;;;;19.41;53.25;98876.88;5090691;28;41049;-84
2023/03/19 09:59:29;;;;;;;2.73;2.03;;;;;;;19.62;53.36;98890.91;5076005;28;40566;-85
2023/03/19 10:02:17;;;;;;;1.90;1.70;;;;;;;19.95;53.64;98886.69;5076717;28;41766;-84
2023/03/19 10:05:04;;;;;;;2.40;1.80;;;;;;;20.26;52.58;98876.38;5075574;28;42726;-86
2023/03/19 10:07:49;;;;;;;3.80;2.10;;;;;;;20.80;51.65;98896.75;5076281;28;40196;-84
2023/03/19 10:10:31;;;;;;;2.00;1.80;;;;;;;21.63;48.69;98898.84;5076132;28;41894;-83
2023/03/19 10:13:07;;;;;;;4.10;1.77;;;;;;;23.62;47.95;98895.38;5075764;28;41775;-85
2023/03/19 10:15:38;;;;;;;2.00;1.80;;;;;;;24.91;43.21;98922.44;5076245;28;41894;-85
2023/03/19 10:18:12;;;;;;;1.70;1.50;;;;;;;25.62;42.10;98899.25;5075681;28;40526;-84
2023/03/19 10:20:48;;;;;;;1.77;1.40;;;;;;;26.48;40.19;98920.00;5076331;28;40766;-85
2023/03/19 10:23:34;;;;;;;2.77;1.60;;;;;;;28.74;34.90;98956.22;5075451;28;42611;-84
2023/03/19 10:26:05;;;;;;;2.03;1.70;;;;;;;30.04;32.65;98985.41;5089911;28;41977;-84
2023/03/19 10:28:33;;;;;;;2.73;1.70;;;;;;;29.96;32.75;98983.75;5075704;28;38838;-84
2023/03/19 10:31:13;;;;;;;1.60;1.50;;;;;;;30.02;33.07;98965.66;5075714;28;40075;-84
2023/03/19 10:33:46;;;;;;;2.00;1.30;;;;;;;30.29;32.13;98967.19;5075751;28;41658;-85
2023/03/19 10:36:14;;;;;;;2.20;1.60;;;;;;;30.56;31.55;98962.38;5076072;28;42703;-85
2023/03/19 10:38:43;;;;;;;1.60;1.50;;;;;;;30.97;31.47;98967.31;5075458;28;39320;-84
2023/03/19 10:41:29;;;;;;;2.15;1.88;;;;;;;31.82;30.14;98948.31;5076046;28;40723;-83
2023/03/19 10:44:02;;;;;;;2.78;2.00;;;;;;;32.67;28.87;98970.94;5075615;28;41697;-83
2023/03/19 10:46:39;;;;;;;1.90;1.60;;;;;;;33.46;27.44;98981.44;5075933;28;41041;-85
2023/03/19 10:49:13;;;;;;;1.80;1.70;;;;;;;34.23;27.32;98962.72;5075942;28;39330;-85
2023/03/19 10:51:45;;;;;;;1.60;1.40;;;;;;;36.28;24.90;98993.19;5075699;28;42154;-86
2023/03/19 10:54:23;;;;;;;3.42;1.52;;;;;;;38.14;22.60;98994.91;5075492;28;41976;-84
2023/03/19 10:56:54;;;;;;;1.92;1.40;;;;;;;39.07;21.03;98986.50;5075221;28;42288;-85
2023/03/19 10:59:25;;;;;;;1.95;1.50;;;;;;;39.26;21.37;98979.28;5092028;28;40876;-83
2023/03/19 11:02:01;;;;;;;1.77;1.45;;;;;;;40.25;19.94;98969.25;5075337;28;40479;-84
2023/03/19 11:04:31;;;;;;;1.70;1.60;;;;;;;40.61;18.63;98978.19;5092001;28;42546;-85
2023/03/19 11:07:09;;;;;;;1.48;1.38;;;;;;;41.02;18.12;98989.00;5091258;28;41377;-83
2023/03/19 11:09:39;;;;;;;1.50;1.40;;;;;;;40.10;19.50;98966.53;5075257;28;39382;-84
2023/03/19 11:12:15;;;;;;;2.70;1.77;;;;;;;39.73;20.09;98922.59;5075089;28;40604;-85
2023/03/19 11:14:46;;;;;;;5.15;1.80;;;;;;;41.12;18.25;98961.13;5074996;28;41811;-83
2023/03/19 11:17:23;;;;;;;1.95;1.45;;;;;;;41.51;18.75;98961.84;5074866;28;42505;-85
2023/03/19 11:19:53;;;;;;;2.50;1.50;;;;;;;40.84;18.07;98968.31;5075343;28;38785;-86
2023/03/19 11:22:24;;;;;;;1.50;1.40;;;;;;;41.32;17.51;98965.66;5091488;28;40788;-84
2023/03/19 11:24:55;;;;;;;1.95;1.85;;;;;;;41.44;17.13;98969.69;5092932;28;20226;-87
2023/03/19 11:27:32;;;;;;;1.58;1.42;;;;;;;42.30;16.51;98965.88;5093071;28;43277;-85
2023/03/19 11:30:01;;;;;;;1.45;1.30;;;;;;;42.80;15.49;98960.69;5081952;28;39087;-84
2023/03/19 11:33:24;;;;;;;2.38;1.70;;;;;;;43.42;15.32;98961.25;5111761;28;42412;-83
2023/03/19 11:36:01;;;;;;;2.45;1.40;;;;;;;43.95;15.50;98946.81;5031690;28;41857;-82
2023/03/19 11:38:37;;;;;;;2.30;1.73;;;;;;;44.80;14.64;98959.97;5090201;28;43240;-81
2023/03/19 11:41:17;;;;;;;3.60;1.60;;;;;;;44.59;14.25;98937.28;5075090;28;40199;-83
2023/03/19 11:43:51;;;;;;;1.65;1.38;;;;;;;43.70;14.76;98939.81;5074384;28;42023;-84
2023/03/19 11:46:39;;;;;;;2.13;1.52;;;;;;;41.34;16.54;98930.88;5074445;28;41650;-83
2023/03/19 11:49:39;;;;;;;2.03;1.45;;;;;;;39.97;17.31;98918.06;5091141;28;40622;-84
2023/03/19 11:52:16;;;;;;;1.67;1.52;;;;;;;38.85;18.37;98905.59;5074756;28;39742;-82
2023/03/19 11:54:59;;;;;;;1.98;1.42;;;;;;;38.84;19.12;98887.31;5074443;28;41340;-83
2023/03/19 11:57:45;;;;;;;2.50;1.70;;;;;;;39.48;17.80;98879.19;5074562;28;42005;-85